Pensacola, FL

6:46 PM CST on December 20, 2014 (GMT -0600)
Pensacola Regional | Change Station
CLOSE
Current Station
Airport
Location: Pensacola,
Elevation: 118 ft
Nearby Weather Stations

Elev 118 ft 30.48 °N, 87.19 °W | Updated 16 minutes ago

Scattered Clouds
Scattered Clouds
50 °F
Feels Like 50 °F
N
9
Wind Variable Wind from North

Today
High -- | Low -- °F
--% Chance of Precip.
Yesterday
High -- | Low -- °F
Precip. -- in
6:41 AM 4:51 PM
Waning Crescent, 1% visible
Pressure 30.11 in
Visibility 10.0 miles
Clouds Scattered Clouds 1100 ft
Scattered Clouds 7500 ft
Dew Point 49 °F
Humidity 96%
Rainfall 0.59 in
Snow Depth Not available.
UV 0 out of 12
Pollen .50 out of 12
Air Quality Not available.
Flu Activity Not available.
SPECI KPNS 210030Z 01008KT 10SM SCT011 SCT075 10/09 A3011 RMK AO2 T01000094

More Conditions Fewer Conditions

Pressure 30.11 in
Visibility 10.0 miles
Clouds Scattered Clouds 1100 ft
Scattered Clouds 7500 ft
Dew Point 49 °F
Humidity 96%
Rainfall 0.59 in
Snow Depth Not available.
UV 0 out of 12
Pollen .50 out of 12
Air Quality Not available.
Flu Activity Not available.
SPECI KPNS 210030Z 01008KT 10SM SCT011 SCT075 10/09 A3011 RMK AO2 T01000094

More Conditions Fewer Conditions

10-Day Weather Forecast

Almanac

Astronomy

Dec. 20, 2014 Rise Set
Actual Time
Civil Twilight
Nautical Twilight
Astronomical Twilight
Moon
Length of Visible Light
Length of Day
Tomorrow will be .
, % of the Moon is Illuminated

Today's Extremes

State Highs State Lows

Community

WunderPhotos

Upload Photos

1,779,326 photos uploaded!

WunderBlogs® & News

Nearby

Air Quality

  Air Quality AQ Index Pollutant
Not available.

Snow Depth

Station Depth Elevation

Earthquake Activity

City Distance Mag. Time & Date
Minimum magnitude displayed is 2.5.

Coastal Water Temperatures

Place Temperature

Nearby Weather Stations